Time;durP1;ratioP1;P1;durP2;ratioP2;P2;SDS_P1;SDS_P2;PMS_P1;PMS_P2;Temp;Humidity;BMP_temperature;BMP_pressure;BME280_temperature;BME280_humidity;BME280_pressure;Samples;Min_cycle;Max_cycle;Signal;HPM_P1;HPM_P2
2022/03/19 00:00:06;;;;;;;18.42;3.33;;;6.40;99.90;;;;;;4863174;29;20056;-71
2022/03/19 00:02:33;;;;;;;25.55;2.92;;;;;;;;;;4863176;29;20145;-71
2022/03/19 00:04:59;;;;;;;18.48;3.80;;;;;;;;;;4863447;29;20105;-71
2022/03/19 00:07:26;;;;;;;15.88;2.55;;;;;;;;;;4863161;29;20052;-71
2022/03/19 00:09:52;;;;;;;17.92;2.97;;;;;;;;;;4863204;29;20467;-71
2022/03/19 00:12:19;;;;;;;16.52;2.53;;;;;;;;;;4848056;29;20048;-71
2022/03/19 00:14:45;;;;;;;16.02;3.17;;;;;;;;;;4863105;29;20057;-71
2022/03/19 00:17:11;;;;;;;17.33;3.92;;;6.20;99.90;;;;;;4863037;29;20048;-71
2022/03/19 00:19:38;;;;;;;18.25;2.60;;;6.10;99.90;;;;;;4862935;29;20048;-71
2022/03/19 00:22:04;;;;;;;16.98;2.20;;;6.10;99.90;;;;;;4862892;29;20048;-71
2022/03/19 00:24:30;;;;;;;21.83;2.80;;;;;;;;;;4863300;29;20060;-71
2022/03/19 00:26:56;;;;;;;14.45;2.50;;;5.60;99.90;;;;;;4847720;29;20045;-71
2022/03/19 00:29:22;;;;;;;14.80;2.72;;;;;;;;;;4879542;29;20199;-71
2022/03/19 00:31:48;;;;;;;20.92;3.35;;;;;;;;;;4862901;29;20049;-71
2022/03/19 00:34:14;;;;;;;15.15;2.80;;;;;;;;;;4862878;29;20127;-71
2022/03/19 00:36:40;;;;;;;20.05;3.03;;;;;;;;;;4847275;29;20501;-71
2022/03/19 00:39:06;;;;;;;22.63;2.60;;;;;;;;;;4863061;29;20393;-71
2022/03/19 00:41:32;;;;;;;18.80;3.47;;;;;;;;;;4862735;29;20041;-71
2022/03/19 00:43:59;;;;;;;14.75;2.30;;;;;;;;;;4862813;29;20481;-71
2022/03/19 00:46:25;;;;;;;11.95;2.88;;;;;;;;;;4879567;29;20127;-71
2022/03/19 00:48:51;;;;;;;21.70;3.75;;;;;;;;;;4847381;29;20097;-71
2022/03/19 00:51:17;;;;;;;16.75;2.92;;;;;;;;;;4866709;29;20097;-71
2022/03/19 00:53:43;;;;;;;18.08;2.72;;;;;;;;;;4866564;29;20049;-71
2022/03/19 00:56:09;;;;;;;18.48;3.60;;;;;;;;;;4866452;29;20113;-71
2022/03/19 00:58:35;;;;;;;17.67;3.30;;;;;;;;;;4866240;29;20136;-71
2022/03/19 01:01:01;;;;;;;14.07;2.35;;;;;;;;;;4866119;29;20063;-71
2022/03/19 01:03:27;;;;;;;16.42;2.53;;;;;;;;;;4866364;29;20443;-71
2022/03/19 01:05:53;;;;;;;16.75;2.88;;;;;;;;;;4866280;29;20073;-71
2022/03/19 01:08:19;;;;;;;19.70;2.97;;;;;;;;;;4866098;29;20076;-71
2022/03/19 01:10:45;;;;;;;14.95;2.38;;;;;;;;;;4866370;29;20041;-71
2022/03/19 01:13:11;;;;;;;21.30;4.10;;;;;;;;;;4866249;29;20049;-71
2022/03/19 01:15:38;;;;;;;13.52;2.30;;;6.40;99.90;;;;;;4866185;29;20045;-71
2022/03/19 01:18:05;;;;;;;14.35;2.50;;;;;;;;;;4866217;29;20490;-71
2022/03/19 01:20:31;;;;;;;15.82;2.78;;;;;;;;;;4866392;29;20056;-71
2022/03/19 01:22:58;;;;;;;17.63;2.67;;;;;;;;;;4865887;29;20463;-71
2022/03/19 01:25:24;;;;;;;16.60;3.17;;;;;;;;;;4865760;29;20048;-71
2022/03/19 01:27:50;;;;;;;19.27;2.53;;;5.30;99.90;;;;;;4866142;29;20049;-71
2022/03/19 01:30:18;;;;;;;25.33;3.08;;;5.20;99.90;;;;;;4865985;29;20056;-71
2022/03/19 01:32:46;;;;;;;19.60;2.85;;;;;;;;;;4865543;29;20073;-71
2022/03/19 01:35:13;;;;;;;17.55;2.53;;;5.30;99.90;;;;;;4865744;29;20053;-71
2022/03/19 01:37:39;;;;;;;22.15;2.63;;;;;;;;;;4865982;29;20045;-71
2022/03/19 01:40:06;;;;;;;16.60;2.63;;;;;;;;;;4865694;29;20040;-71
2022/03/19 01:42:34;;;;;;;14.20;2.40;;;5.20;99.90;;;;;;4850434;29;20045;-71
2022/03/19 01:45:02;;;;;;;14.93;3.72;;;5.40;99.90;;;;;;4865390;29;20041;-71
2022/03/19 01:47:30;;;;;;;12.43;2.50;;;5.60;99.90;;;;;;4865777;29;20049;-71
2022/03/19 01:49:57;;;;;;;16.88;2.60;;;5.50;99.90;;;;;;4865771;29;20045;-71
2022/03/19 01:52:25;;;;;;;18.98;2.70;;;5.20;99.90;;;;;;4882316;29;20132;-71
2022/03/19 01:54:52;;;;;;;18.50;2.78;;;5.30;99.90;;;;;;4865431;29;20052;-71
2022/03/19 01:57:22;;;;;;;23.40;2.72;;;5.00;99.90;;;;;;4865426;29;20060;-71
2022/03/19 01:59:48;;;;;;;22.10;3.08;;;5.40;99.90;;;;;;4849435;29;20131;-71
2022/03/19 02:02:14;;;;;;;16.13;2.63;;;;;;;;;;4865253;29;20184;-71
2022/03/19 02:04:41;;;;;;;20.50;3.13;;;5.20;99.90;;;;;;4865641;29;20045;-71
2022/03/19 02:07:08;;;;;;;15.05;2.65;;;;;;;;;;4865314;29;20076;-71
2022/03/19 02:09:35;;;;;;;16.33;2.80;;;5.20;99.90;;;;;;4865234;29;20165;-71
2022/03/19 02:12:02;;;;;;;12.10;2.15;;;5.20;99.90;;;;;;4865331;29;20075;-71
2022/03/19 02:14:28;;;;;;;17.50;3.47;;;;;;;;;;4865365;29;20078;-70
2022/03/19 02:16:54;;;;;;;22.42;3.25;;;;;;;;;;4865336;29;20076;-71
2022/03/19 02:19:21;;;;;;;13.40;2.70;;;;;;;;;;4865080;29;20136;-71
2022/03/19 02:21:48;;;;;;;17.75;2.45;;;4.90;99.90;;;;;;4864954;29;20045;-71
2022/03/19 02:27:01;;;;;;;13.35;2.53;;;5.10;99.90;;;;;;4864923;29;20045;-71
2022/03/19 02:29:27;;;;;;;18.70;2.95;;;;;;;;;;4849377;29;20114;-71
2022/03/19 02:31:58;;;;;;;17.17;3.35;;;5.10;99.90;;;;;;4864791;29;20409;-71
2022/03/19 02:34:24;;;;;;;14.25;3.03;;;5.30;99.90;;;;;;4849599;29;20447;-70
2022/03/19 02:36:50;;;;;;;22.15;3.33;;;;;;;;;;4864815;29;20056;-70
2022/03/19 02:39:33;;;;;;;16.08;3.08;;;5.20;99.90;;;;;;4864856;29;20041;-71
2022/03/19 02:41:59;;;;;;;;;;;;;;;;;;4864932;29;20474;-71
2022/03/19 02:44:25;;;;;;;23.85;3.00;;;5.60;99.90;;;;;;4864459;29;20002;-71
2022/03/19 02:46:55;;;;;;;21.20;3.53;;;;;;;;;;4881260;29;20099;-70
2022/03/19 02:49:22;;;;;;;19.63;2.83;;;;;;;;;;4864483;29;20078;-71
2022/03/19 02:51:51;;;;;;;23.75;4.28;;;4.90;99.90;;;;;;4864234;29;20136;-71
2022/03/19 02:54:22;;;;;;;20.13;2.58;;;4.90;99.90;;;;;;4864487;29;20044;-70
2022/03/19 02:56:48;;;;;;;17.05;3.40;;;;;;;;;;4864362;29;20049;-71
2022/03/19 02:59:22;;;;;;;21.95;3.42;;;5.10;99.90;;;;;;4864487;29;20053;-71
2022/03/19 03:01:50;;;;;;;13.95;3.00;;;5.10;99.90;;;;;;4880815;29;20061;-70
2022/03/19 03:04:16;;;;;;;17.73;2.83;;;;;;;;;;4881099;29;20051;-71
2022/03/19 03:06:43;;;;;;;18.63;3.28;;;;;;;;;;4848808;29;20052;-70
2022/03/19 03:09:10;;;;;;;19.75;3.30;;;;;;;;;;4864176;29;20132;-70
2022/03/19 03:11:36;;;;;;;22.65;3.17;;;;;;;;;;4863627;29;20105;-70
2022/03/19 03:14:04;;;;;;;19.25;3.25;;;4.80;99.90;;;;;;4863967;29;20045;-71
2022/03/19 03:16:30;;;;;;;22.40;3.08;;;;;;;;;;4864120;29;20049;-70
2022/03/19 03:18:59;;;;;;;23.10;3.22;;;4.80;99.90;;;;;;4864154;29;20056;-71
2022/03/19 03:21:27;;;;;;;27.00;4.40;;;;;;;;;;4863738;29;20514;-71
2022/03/19 03:23:54;;;;;;;15.75;3.63;;;4.90;99.90;;;;;;4864054;29;20093;-70
2022/03/19 03:26:20;;;;;;;28.70;3.90;;;;;;;;;;4863603;29;20048;-70
2022/03/19 03:28:46;;;;;;;19.50;4.45;;;;;;;;;;4863950;29;20045;-70
2022/03/19 03:31:12;;;;;;;21.27;3.17;;;;;;;;;;4864179;29;20104;-71
2022/03/19 03:33:38;;;;;;;27.08;3.70;;;;;;;;;;4863674;29;20056;-70
2022/03/19 03:36:04;;;;;;;18.00;3.28;;;5.30;99.90;;;;;;4863749;29;20087;-70
2022/03/19 03:38:30;;;;;;;19.73;3.90;;;;;;;;;;4848297;29;20068;-71
2022/03/19 03:40:57;;;;;;;20.75;3.50;;;;;;;;;;4863586;29;20504;-71
2022/03/19 03:43:23;;;;;;;21.40;3.33;;;;;;;;;;4863602;29;20048;-70
2022/03/19 03:45:49;;;;;;;21.95;3.72;;;;;;;;;;4863531;29;20575;-71
2022/03/19 03:48:15;;;;;;;27.40;4.72;;;;;;;;;;4863463;29;20076;-70
2022/03/19 03:50:41;;;;;;;23.33;4.63;;;;;;;;;;4863359;29;20116;-70
2022/03/19 03:53:08;;;;;;;22.40;4.47;;;;;;;;;;4863191;29;20053;-71
2022/03/19 03:55:36;;;;;;;14.75;3.53;;;4.70;99.90;;;;;;4863610;29;20057;-71
2022/03/19 03:58:03;;;;;;;15.43;4.10;;;4.40;99.90;;;;;;4863594;29;20116;-70
2022/03/19 04:00:31;;;;;;;18.42;4.93;;;5.00;99.90;;;;;;4863251;29;20053;-70
2022/03/19 04:02:57;;;;;;;21.48;3.72;;;;;;;;;;4863102;29;20049;-71
2022/03/19 04:05:23;;;;;;;20.38;3.97;;;4.30;99.90;;;;;;4847865;29;20041;-71
2022/03/19 04:07:48;;;;;;;13.60;4.10;;;5.20;99.90;;;;;;4863198;29;20052;-71
2022/03/19 04:10:14;;;;;;;20.33;4.32;;;;;;;;;;4847688;29;20049;-71
2022/03/19 04:12:40;;;;;;;17.75;4.75;;;;;;;;;;4863100;29;20053;-70
2022/03/19 04:15:07;;;;;;;15.52;5.10;;;;;;;;;;4863112;29;20045;-71
2022/03/19 04:17:33;;;;;;;19.13;5.22;;;4.60;99.90;;;;;;4863061;29;20128;-71
2022/03/19 04:19:59;;;;;;;20.08;4.68;;;;;;;;;;4862817;29;20051;-71
2022/03/19 04:22:33;;;;;;;23.83;4.80;;;4.50;99.90;;;;;;4862968;29;20461;-71
2022/03/19 04:24:59;;;;;;;28.83;5.82;;;;;;;;;;4862858;29;20052;-70
2022/03/19 04:27:25;;;;;;;22.25;4.93;;;;;;;;;;4862798;29;20128;-70
2022/03/19 04:29:51;;;;;;;22.80;5.40;;;;;;;;;;4862781;29;20096;-70
2022/03/19 04:32:17;;;;;;;20.15;5.20;;;;;;;;;;4862791;29;20056;-70
2022/03/19 04:34:44;;;;;;;13.68;4.40;;;;;;;;;;4862992;29;20077;-70
2022/03/19 04:37:10;;;;;;;19.17;4.82;;;;;;;;;;4863044;29;20084;-71
2022/03/19 04:39:36;;;;;;;25.40;5.03;;;;;;;;;;4863247;29;20056;-70
2022/03/19 04:42:02;;;;;;;20.83;5.95;;;;;;;;;;4862978;29;20057;-70
2022/03/19 04:44:28;;;;;;;20.63;5.00;;;;;;;;;;4862799;29;20052;-71
2022/03/19 04:46:54;;;;;;;19.52;5.47;;;;;;;;;;4862950;29;20351;-71
2022/03/19 04:49:20;;;;;;;25.88;5.45;;;;;;;;;;4879545;29;20397;-71
2022/03/19 04:51:48;;;;;;;16.92;5.07;;;4.50;99.90;;;;;;4879536;29;20089;-70
2022/03/19 04:54:15;;;;;;;33.75;5.35;;;4.50;99.90;;;;;;4847471;29;20394;-70
2022/03/19 04:56:42;;;;;;;23.38;5.35;;;;;;;;;;4862774;29;20052;-71
2022/03/19 04:59:11;;;;;;;18.80;4.45;;;;;;;;;;4862725;29;20055;-71
2022/03/19 05:01:39;;;;;;;30.88;5.63;;;4.60;99.90;;;;;;4862371;29;20063;-71
2022/03/19 05:04:05;;;;;;;20.58;5.45;;;;;;;;;;4879352;29;20569;-71
2022/03/19 05:06:31;;;;;;;21.95;6.13;;;;;;;;;;4862947;29;20367;-70
2022/03/19 05:11:42;;;;;;;25.70;5.53;;;4.60;99.90;;;;;;4862637;29;20048;-70
2022/03/19 05:14:09;;;;;;;20.60;6.07;;;;;;;;;;4862899;29;20056;-70
2022/03/19 05:16:35;;;;;;;24.98;6.40;;;;;;;;;;4847044;29;20072;-70
2022/03/19 05:19:01;;;;;;;16.58;4.93;;;;;;;;;;4862610;29;20520;-70
2022/03/19 05:21:27;;;;;;;26.48;5.53;;;;;;;;;;4862380;29;20041;-70
2022/03/19 05:23:53;;;;;;;18.98;6.32;;;;;;;;;;4862445;29;20101;-70
2022/03/19 05:26:20;;;;;;;27.58;5.45;;;;;;;;;;4862568;29;20064;-70
2022/03/19 05:28:46;;;;;;;17.27;5.63;;;;;;;;;;4862590;29;20049;-70
2022/03/19 05:31:12;;;;;;;20.40;5.60;;;;;;;;;;4862392;29;20120;-70
2022/03/19 05:36:27;;;;;;;22.25;5.40;;;5.20;99.90;;;;;;4818356;29;20088;-70
2022/03/19 05:38:53;;;;;;;21.70;5.70;;;;;;;;;;4865783;29;20087;-70
2022/03/19 05:41:19;;;;;;;23.55;5.78;;;;;;;;;;4865413;29;20566;-70
2022/03/19 05:43:46;;;;;;;24.08;6.13;;;;;;;;;;4865621;29;20044;-70
2022/03/19 05:46:12;;;;;;;15.77;5.43;;;;;;;;;;4865796;29;20071;-70
2022/03/19 05:48:38;;;;;;;19.73;5.82;;;;;;;;;;4865807;29;20045;-70
2022/03/19 05:51:05;;;;;;;21.95;6.38;;;;;;;;;;4865489;29;20049;-71
2022/03/19 05:53:31;;;;;;;18.23;6.07;;;;;;;;;;4865686;29;20148;-70
2022/03/19 05:55:57;;;;;;;18.00;6.55;;;;;;;;;;4882039;29;20048;-70
2022/03/19 05:58:23;;;;;;;22.02;6.82;;;;;;;;;;4865388;29;20041;-70
2022/03/19 06:00:49;;;;;;;19.90;6.53;;;;;;;;;;4865298;29;20132;-70
2022/03/19 06:03:15;;;;;;;24.75;6.80;;;4.80;99.90;;;;;;4865160;29;20061;-70
2022/03/19 06:05:41;;;;;;;29.58;7.28;;;;;;;;;;4865058;29;20052;-70
2022/03/19 06:08:07;;;;;;;24.27;6.10;;;;;;;;;;4865483;29;20064;-71
2022/03/19 06:10:35;;;;;;;24.27;6.35;;;;;;;;;;4865263;29;20069;-70
2022/03/19 06:13:02;;;;;;;20.58;6.47;;;;;;;;;;4865009;29;20112;-70
2022/03/19 06:15:28;;;;;;;21.55;6.18;;;;;;;;;;4849878;29;20435;-70
2022/03/19 06:17:55;;;;;;;25.35;6.90;;;;;;;;;;4881823;29;20045;-70
2022/03/19 06:20:22;;;;;;;20.65;6.68;;;;;;;;;;4865305;29;20373;-71
2022/03/19 06:22:49;;;;;;;26.50;6.78;;;;;;;;;;4881613;29;20049;-70
2022/03/19 06:25:15;;;;;;;26.17;6.70;;;;;;;;;;4864974;29;20048;-70
2022/03/19 06:27:41;;;;;;;24.30;6.95;;;;;;;;;;4864849;29;20037;-70
2022/03/19 06:30:08;;;;;;;19.38;6.85;;;4.10;99.90;;;;;;4864944;29;20044;-70
2022/03/19 06:32:36;;;;;;;18.35;7.50;;;4.90;99.90;;;;;;4865136;29;20052;-71
2022/03/19 06:35:03;;;;;;;34.95;7.88;;;;;;;;;;4864614;29;20041;-70
2022/03/19 06:37:29;;;;;;;32.58;7.45;;;;;;;;;;4864715;29;20053;-70
2022/03/19 06:39:57;;;;;;;24.50;7.25;;;;;;;;;;4864657;29;20132;-71
2022/03/19 06:42:23;;;;;;;22.77;6.70;;;;;;;;;;4864473;29;20051;-70
2022/03/19 06:44:50;;;;;;;26.05;7.10;;;;;;;;;;4864361;29;20061;-71
2022/03/19 06:47:16;;;;;;;21.15;6.03;;;;;;;;;;4863551;29;20048;-70
2022/03/19 06:49:42;;;;;;;24.70;7.22;;;;;;;;;;4849133;29;20125;-70
2022/03/19 06:52:10;;;;;;;23.40;6.68;;;;;;;;;;4864498;29;20044;-70
2022/03/19 06:54:35;;;;;;;25.77;7.68;;;5.90;99.90;;;;;;4864406;29;20451;-70
2022/03/19 06:57:02;;;;;;;29.13;7.05;;;5.10;99.90;;;;;;4864606;29;20045;-70
2022/03/19 06:59:28;;;;;;;22.55;7.55;;;;;;;;;;4864202;29;20068;-70
2022/03/19 07:01:55;;;;;;;25.67;8.30;;;;;;;;;;4864111;29;20133;-70
2022/03/19 07:04:21;;;;;;;18.27;6.80;;;;;;;;;;4864539;29;20371;-70
2022/03/19 07:06:47;;;;;;;22.17;7.55;;;;;;;;;;4864242;29;20045;-70
2022/03/19 07:09:13;;;;;;;24.80;7.78;;;;;;;;;;4864296;29;20041;-70
2022/03/19 07:11:39;;;;;;;20.98;7.03;;;;;;;;;;4848974;29;20371;-70
2022/03/19 07:14:05;;;;;;;27.40;8.52;;;;;;;;;;4864010;29;20080;-70
2022/03/19 07:16:31;;;;;;;23.65;8.02;;;;;;;;;;4864132;29;20469;-70
2022/03/19 07:18:58;;;;;;;22.92;7.57;;;;;;;;;;4864176;29;20482;-70
2022/03/19 07:21:24;;;;;;;28.25;8.30;;;;;;;;;;4863930;29;20045;-70
2022/03/19 07:23:50;;;;;;;23.58;8.00;;;;;;;;;;4864029;29;20045;-70
2022/03/19 07:26:16;;;;;;;24.00;7.07;;;;;;;;;;4863964;29;20124;-70
2022/03/19 07:28:43;;;;;;;24.00;7.68;;;;;;;;;;4863964;29;20128;-70
2022/03/19 07:31:09;;;;;;;19.15;7.53;;;;;;;;;;4863844;29;20139;-71
2022/03/19 07:33:35;;;;;;;22.60;7.07;;;;;;;;;;4863672;29;20052;-70
2022/03/19 07:36:02;;;;;;;25.45;8.00;;;5.90;99.90;;;;;;4863655;29;20051;-70
2022/03/19 07:38:30;;;;;;;18.23;6.95;;;;;;;;;;4848343;29;20075;-70
2022/03/19 07:43:42;;;;;;;21.48;6.97;;;;;;;;;;4862944;29;20116;-70
2022/03/19 07:46:08;;;;;;;27.17;7.80;;;;;;;;;;4863497;29;20052;-70
2022/03/19 07:48:34;;;;;;;21.83;7.28;;;;;;;;;;4863445;29;20051;-70
2022/03/19 07:51:00;;;;;;;25.63;7.88;;;;;;;;;;4863392;29;20045;-70
2022/03/19 07:53:26;;;;;;;28.30;8.32;;;;;;;;;;4863437;29;20486;-70
2022/03/19 07:55:54;;;;;;;23.55;7.43;;;;;;;;;;4847900;29;20123;-70
2022/03/19 07:58:21;;;;;;;27.70;7.32;;;;;;;;;;4863037;29;20048;-70
2022/03/19 08:00:47;;;;;;;18.77;6.85;;;;;;;;;;4847559;29;20057;-71
2022/03/19 08:03:13;;;;;;;27.85;7.65;;;;;;;;;;4863574;29;20427;-70
2022/03/19 08:05:42;;;;;;;27.17;7.78;;;6.70;99.90;;;;;;4863273;29;20049;-70
2022/03/19 08:08:08;;;;;;;34.42;7.53;;;;;;;;;;4863390;29;20059;-70
2022/03/19 08:10:36;;;;;;;23.30;7.15;;;6.40;99.90;;;;;;4863420;29;20052;-71
2022/03/19 08:13:07;;;;;;;28.05;7.05;;;6.60;99.90;;;;;;4862971;29;20045;-70
2022/03/19 08:15:34;;;;;;;28.00;8.13;;;;;;;;;;4879653;29;20397;-70
2022/03/19 08:18:00;;;;;;;21.45;6.80;;;;;;;;;;4862997;29;20087;-70
2022/03/19 08:20:27;;;;;;;27.48;8.40;;;6.50;99.90;;;;;;4862781;29;20041;-70
2022/03/19 08:22:53;;;;;;;18.17;6.97;;;;;;;;;;4847461;29;20077;-70
2022/03/19 08:25:19;;;;;;;20.77;7.00;;;;;;;;;;4862884;29;20076;-71
2022/03/19 08:27:45;;;;;;;25.33;8.88;;;;;;;;;;4847697;29;20438;-70
2022/03/19 08:30:11;;;;;;;23.75;7.35;;;;;;;;;;4847420;29;20045;-70
2022/03/19 08:32:38;;;;;;;22.55;7.82;;;;;;;;;;4863163;29;20049;-71
2022/03/19 08:35:04;;;;;;;29.38;7.72;;;;;;;;;;4863045;29;20143;-71
2022/03/19 08:37:32;;;;;;;28.25;7.50;;;7.30;99.90;;;;;;4847425;29;20049;-71
2022/03/19 08:40:17;;;;;;;21.83;7.07;;;;;;;;;;4862715;29;20063;-71
2022/03/19 08:42:53;;;;;;;22.63;6.65;;;7.30;99.90;;;;;;4862595;29;20081;-71
2022/03/19 08:45:20;;;;;;;23.00;6.93;;;7.20;99.90;;;;;;4862619;29;20053;-71
2022/03/19 08:47:46;;;;;;;21.85;6.20;;;;;;;;;;4879542;29;20056;-71
2022/03/19 08:50:12;;;;;;;26.85;6.45;;;;;;;;;;4862561;29;20052;-71
2022/03/19 08:52:38;;;;;;;22.50;5.70;;;;;;;;;;4879251;29;20045;-71
2022/03/19 08:55:05;;;;;;;22.27;6.60;;;;;;;;;;4862633;29;20089;-70
2022/03/19 08:57:31;;;;;;;22.50;5.50;;;;;;;;;;4862523;29;20514;-70
2022/03/19 08:59:58;;;;;;;24.40;5.70;;;7.90;99.90;;;;;;4862443;29;20132;-71
2022/03/19 09:02:24;;;;;;;18.25;5.35;;;;;;;;;;4846959;29;20139;-71
2022/03/19 09:04:50;;;;;;;20.10;5.10;;;;;;;;;;4862694;29;20123;-71
2022/03/19 09:07:18;;;;;;;17.75;4.93;;;;;;;;;;4862457;29;20041;-70
2022/03/19 09:09:44;;;;;;;19.35;5.47;;;;;;;;;;4862464;29;20048;-71
2022/03/19 09:12:10;;;;;;;17.35;4.93;;;;;;;;;;4866077;29;20116;-71
2022/03/19 09:14:37;;;;;;;17.85;4.70;;;;;;;;;;4866126;29;20502;-70
2022/03/19 09:17:03;;;;;;;12.45;4.45;;;;;;;;;;4866229;29;20135;-71
2022/03/19 09:19:29;;;;;;;14.90;3.83;;;;;;;;;;4866114;29;20055;-71
2022/03/19 09:21:55;;;;;;;19.05;3.80;;;;;;;;;;4865927;29;20053;-71
2022/03/19 09:24:21;;;;;;;16.52;4.20;;;;;;;;;;4865915;29;20566;-71
2022/03/19 09:26:48;;;;;;;11.02;3.75;;;;;;;;;;4866088;29;20040;-71
2022/03/19 09:29:15;;;;;;;13.65;4.13;;;;;;;;;;4865889;29;20049;-71
2022/03/19 09:31:41;;;;;;;22.88;4.40;;;;;;;;;;4866001;29;20498;-72
2022/03/19 09:34:07;;;;;;;23.50;4.32;;;;;;;;;;4865905;29;20079;-70
2022/03/19 09:36:33;;;;;;;17.30;4.05;;;;;;;;;;4865679;29;20049;-70
2022/03/19 09:38:59;;;;;;;14.25;3.72;;;;;;;;;;4855711;29;20536;-68
2022/03/19 09:41:26;;;;;;;18.70;3.55;;;;;;;;;;4865108;29;20048;-72
2022/03/19 09:43:53;;;;;;;17.73;3.42;;;;;;;;;;4882271;29;20092;-77
2022/03/19 09:46:19;;;;;;;18.52;3.22;;;;;;;;;;4865208;29;20080;-70
2022/03/19 09:48:45;;;;;;;13.85;3.00;;;;;;;;;;4865137;29;20040;-70
2022/03/19 09:51:11;;;;;;;14.40;3.35;;;;;;;;;;4873358;29;20060;-72
2022/03/19 09:53:37;;;;;;;16.00;3.55;;;;;;;;;;4865112;29;20045;-71
2022/03/19 09:56:03;;;;;;;14.80;3.08;;;;;;;;;;4864455;29;20048;-70
2022/03/19 09:58:29;;;;;;;16.00;3.20;;;;;;;;;;4863548;29;20052;-70
2022/03/19 10:01:03;;;;;;;14.73;4.93;;;9.60;98.30;;;;;;4864375;29;20059;-70
2022/03/19 10:03:29;;;;;;;18.50;5.72;;;;;;;;;;4880375;29;20196;-71
2022/03/19 10:08:57;;;;;;;15.30;4.50;;;9.90;99.90;;;;;;4816017;29;20085;-71
2022/03/19 10:11:27;;;;;;;16.45;3.33;;;;;;;;;;4865375;29;20064;-70
2022/03/19 10:13:53;;;;;;;18.75;3.72;;;;;;;;;;4865144;29;20049;-70
2022/03/19 10:16:28;;;;;;;11.75;2.90;;;9.90;97.10;;;;;;4865053;29;20110;-71
2022/03/19 10:19:06;;;;;;;10.93;3.25;;;10.10;96.80;;;;;;4865204;29;20419;-71
2022/03/19 10:21:37;;;;;;;13.90;4.07;;;10.30;96.70;;;;;;4881343;29;20366;-71
2022/03/19 10:24:06;;;;;;;11.52;4.53;;;10.20;99.40;;;;;;4864797;29;20045;-71
2022/03/19 10:26:35;;;;;;;14.60;4.25;;;10.20;96.10;;;;;;4864576;29;20476;-73
2022/03/19 10:29:06;;;;;;;15.32;3.30;;;10.20;95.50;;;;;;4863988;29;20093;-71
2022/03/19 10:31:37;;;;;;;13.83;3.33;;;;;;;;;;4862610;29;20045;-71
2022/03/19 10:34:05;;;;;;;11.90;3.28;;;10.30;95.60;;;;;;4864101;29;20091;-70
2022/03/19 10:36:35;;;;;;;9.38;3.35;;;;;;;;;;4864495;29;20076;-70
2022/03/19 10:39:31;;;;;;;12.10;3.53;;;10.60;94.30;;;;;;4862526;29;20047;-70
2022/03/19 10:41:58;;;;;;;11.68;3.47;;;10.70;94.00;;;;;;4859021;29;20059;-71
2022/03/19 10:44:28;;;;;;;13.55;2.80;;;;;;;;;;4848903;29;20053;-70
2022/03/19 10:46:54;;;;;;;11.57;2.90;;;;;;;;;;4845503;29;20044;-70
2022/03/19 10:49:22;;;;;;;10.85;2.97;;;10.70;94.80;;;;;;4849873;29;20044;-69
2022/03/19 10:51:50;;;;;;;13.10;3.60;;;11.70;94.90;;;;;;4845976;29;20072;-69
2022/03/19 10:54:16;;;;;;;12.40;3.38;;;;;;;;;;4859491;29;20049;-69
2022/03/19 10:56:43;;;;;;;12.50;3.13;;;10.40;96.90;;;;;;4863167;29;20376;-69
2022/03/19 10:59:10;;;;;;;12.07;2.60;;;;;;;;;;4863030;29;20040;-69
2022/03/19 11:01:36;;;;;;;8.73;2.35;;;11.10;92.80;;;;;;4845200;29;20110;-69
2022/03/19 11:04:03;;;;;;;11.27;3.47;;;;;;;;;;4861510;29;20045;-70
2022/03/19 11:06:35;;;;;;;14.82;3.58;;;11.40;96.20;;;;;;4862791;29;20393;-70
2022/03/19 11:09:06;;;;;;;13.07;2.60;;;11.40;92.30;;;;;;4863397;29;20049;-69
2022/03/19 11:11:47;;;;;;;8.50;2.63;;;11.80;95.50;;;;;;4863122;29;20048;-69
2022/03/19 11:14:22;;;;;;;16.45;3.33;;;11.30;95.40;;;;;;4878444;29;20498;-70
2022/03/19 11:17:23;;;;;;;10.23;3.20;;;;;;;;;;4862021;29;20045;-69
2022/03/19 11:19:37;;;;;;;10.95;3.35;;;11.80;92.40;;;;;;4862807;29;20052;-70
2022/03/19 11:22:03;;;;;;;15.23;4.38;;;12.40;95.30;;;;;;4847023;29;20132;-69
2022/03/19 11:24:33;;;;;;;15.07;3.55;;;;;;;;;;4879337;29;20045;-70
2022/03/19 11:26:59;;;;;;;13.70;3.60;;;11.40;95.70;;;;;;4859927;29;20045;-70
2022/03/19 11:29:27;;;;;;;10.38;3.20;;;13.20;91.60;;;;;;4862395;29;20049;-69
2022/03/19 11:31:58;;;;;;;10.82;2.95;;;12.60;94.70;;;;;;4860684;29;20048;-70
2022/03/19 11:34:25;;;;;;;9.48;3.28;;;12.00;91.20;;;;;;4862097;29;20132;-69
2022/03/19 11:36:59;;;;;;;12.98;2.70;;;12.40;91.60;;;;;;4862447;29;20168;-70
2022/03/19 11:39:25;;;;;;;12.95;3.20;;;;;;;;;;4861231;29;20116;-70
2022/03/19 11:41:51;;;;;;;12.23;3.17;;;;;;;;;;4862116;29;20056;-70
2022/03/19 11:44:24;;;;;;;12.18;2.70;;;11.80;90.90;;;;;;4862146;29;20052;-70
2022/03/19 11:47:00;;;;;;;;;;;12.60;90.50;;;;;;4862827;29;20037;-70
2022/03/19 11:49:49;;;;;;;8.20;2.70;;;13.10;93.80;;;;;;4877663;29;19930;-70
2022/03/19 11:52:24;;;;;;;10.27;2.80;;;13.20;90.40;;;;;;4862073;29;20045;-70
2022/03/19 11:55:05;;;;;;;8.95;2.38;;;12.70;89.50;;;;;;4877428;29;20041;-70
2022/03/19 11:57:45;;;;;;;10.77;2.67;;;13.50;93.50;;;;;;4862330;29;20045;-70
2022/03/19 12:00:14;;;;;;;10.70;2.55;;;12.70;89.80;;;;;;4877730;29;20140;-70
2022/03/19 12:03:16;;;;;;;8.50;2.40;;;13.20;92.80;;;;;;4877137;29;20133;-70
2022/03/19 12:05:45;;;;;;;7.32;2.20;;;;;;;;;;4860657;29;20037;-69
2022/03/19 12:08:22;;;;;;;17.58;3.05;;;13.40;92.50;;;;;;4846523;29;20041;-69
2022/03/19 12:10:59;;;;;;;8.95;2.75;;;13.00;85.60;;;;;;4878543;29;20539;-70
2022/03/19 12:13:28;;;;;;;11.98;2.92;;;13.50;86.20;;;;;;4878568;29;20083;-70
2022/03/19 12:15:55;;;;;;;11.20;2.95;;;13.00;91.60;;;;;;4862095;29;20378;-70
2022/03/19 12:18:35;;;;;;;11.35;2.72;;;13.60;90.60;;;;;;4861581;29;20037;-69
2022/03/19 12:21:14;;;;;;;9.65;2.55;;;13.20;86.80;;;;;;4859995;29;20061;-69
2022/03/19 12:23:51;;;;;;;13.63;2.92;;;13.60;92.00;;;;;;4859483;29;20039;-69
2022/03/19 12:26:22;;;;;;;12.85;2.88;;;13.60;86.40;;;;;;4877112;29;20041;-69
2022/03/19 12:29:18;;;;;;;9.45;2.20;;;13.40;86.00;;;;;;4874140;29;20443;-70
2022/03/19 12:31:45;;;;;;;12.95;2.90;;;;;;;;;;4842413;29;20140;-70
2022/03/19 12:34:15;;;;;;;7.68;2.45;;;14.10;91.30;;;;;;4861356;29;20513;-70
2022/03/19 12:36:41;;;;;;;7.57;2.40;;;;;;;;;;4861684;29;20359;-69
2022/03/19 12:39:08;;;;;;;11.63;2.67;;;;;;;;;;4856888;29;20049;-70
2022/03/19 12:41:34;;;;;;;7.55;2.50;;;;;;;;;;4861359;29;20052;-70
2022/03/19 12:44:16;;;;;;;14.75;3.30;;;14.00;83.70;;;;;;4859854;29;20045;-70
2022/03/19 12:46:42;;;;;;;16.43;4.00;;;;;;;;;;4864884;29;20506;-70
2022/03/19 12:49:14;;;;;;;12.65;3.60;;;13.80;92.60;;;;;;4865079;29;20782;-69
2022/03/19 12:51:43;;;;;;;17.00;4.13;;;13.20;92.90;;;;;;4865277;29;20052;-69
2022/03/19 12:54:27;;;;;;;14.18;4.30;;;14.30;92.00;;;;;;4862061;29;20811;-69
2022/03/19 12:57:27;;;;;;;13.93;3.38;;;13.20;90.10;;;;;;4863356;29;20048;-69
2022/03/19 12:59:58;;;;;;;18.42;4.22;;;13.20;90.40;;;;;;4863582;29;20049;-69
2022/03/19 13:02:25;;;;;;;17.92;4.20;;;13.60;93.90;;;;;;4865646;29;20056;-69
2022/03/19 13:04:51;;;;;;;12.90;3.53;;;12.50;94.10;;;;;;4839385;29;20478;-69
2022/03/19 13:07:18;;;;;;;16.80;3.78;;;13.10;91.10;;;;;;4839990;29;20057;-69
2022/03/19 13:09:45;;;;;;;11.55;4.18;;;12.50;93.90;;;;;;4853235;29;20033;-69
2022/03/19 13:12:17;;;;;;;10.85;3.55;;;12.80;93.90;;;;;;4869511;29;20114;-69
2022/03/19 13:14:50;;;;;;;;;;;13.30;91.20;;;;;;4853451;29;20401;-69
2022/03/19 13:17:16;;;;;;;;;;;13.30;91.20;;;;;;4865376;29;19927;-69
2022/03/19 13:19:42;;;;;;;13.10;3.20;;;;;;;;;;4863506;29;19919;-69
2022/03/19 13:22:08;;;;;;;13.00;3.25;;;;;;;;;;4865955;29;20063;-69
2022/03/19 13:24:39;;;;;;;10.85;3.53;;;13.20;91.10;;;;;;4847448;29;20069;-69
2022/03/19 13:27:05;;;;;;;15.00;4.13;;;;;;;;;;4864333;29;20378;-69
2022/03/19 13:29:35;;;;;;;9.45;3.25;;;13.30;90.90;;;;;;4849139;29;20048;-69
2022/03/19 13:32:04;;;;;;;11.07;3.78;;;13.90;94.50;;;;;;4864664;29;20085;-69
2022/03/19 13:34:29;;;;;;;19.52;3.67;;;12.40;93.60;;;;;;4848868;29;20402;-69
2022/03/19 13:36:58;;;;;;;10.98;4.55;;;13.20;91.10;;;;;;4859619;29;20050;-69
2022/03/19 13:39:30;;;;;;;17.63;3.55;;;13.30;94.80;;;;;;4879970;29;20112;-69
2022/03/19 13:42:04;;;;;;;16.73;6.03;;;13.30;94.80;;;;;;4848687;29;20146;-69
2022/03/19 13:44:34;;;;;;;16.48;3.55;;;14.10;95.00;;;;;;4864615;29;20372;-70
2022/03/19 13:47:20;;;;;;;17.38;4.30;;;13.80;92.40;;;;;;4864213;29;20524;-69
2022/03/19 13:49:57;;;;;;;17.83;4.25;;;13.50;91.10;;;;;;4861458;29;20070;-69
2022/03/19 13:52:31;;;;;;;18.75;3.80;;;12.80;94.80;;;;;;4878372;29;20044;-69
2022/03/19 13:55:05;;;;;;;14.85;3.83;;;13.10;95.00;;;;;;4863965;29;20049;-69
2022/03/19 13:57:46;;;;;;;20.08;4.40;;;14.10;95.30;;;;;;4880242;29;20454;-69
2022/03/19 14:00:16;;;;;;;16.23;3.70;;;13.20;95.10;;;;;;4862870;29;20049;-69
2022/03/19 14:02:51;;;;;;;14.77;3.92;;;13.80;93.40;;;;;;4863090;29;20487;-70